createdAt,value
2023-05-22T00:01:53.070Z,99.00
2023-05-22T00:04:21.413Z,98.90
2023-05-22T00:06:49.415Z,98.80
2023-05-22T00:09:16.681Z,98.90
2023-05-22T00:11:45.002Z,99.10
2023-05-22T00:14:13.741Z,99.30
2023-05-22T00:16:41.540Z,99.50
2023-05-22T00:19:19.096Z,99.50
2023-05-22T00:21:47.347Z,99.70
2023-05-22T00:24:14.230Z,99.70
2023-05-22T00:26:41.204Z,99.80
2023-05-22T00:29:08.133Z,99.90
2023-05-22T00:31:35.189Z,99.90
2023-05-22T00:34:02.499Z,99.90
2023-05-22T00:36:30.682Z,99.90
2023-05-22T00:38:58.634Z,99.90
2023-05-22T00:41:26.178Z,99.90
2023-05-22T00:43:53.300Z,99.90
2023-05-22T00:46:38.830Z,99.90
2023-05-22T00:49:06.842Z,99.90
2023-05-22T00:51:33.967Z,99.90
2023-05-22T00:54:01.042Z,99.90
2023-05-22T00:56:29.375Z,99.90
2023-05-22T00:58:56.681Z,99.90
2023-05-22T01:01:26.427Z,99.90
2023-05-22T01:03:54.070Z,99.90
2023-05-22T01:06:24.530Z,99.90
2023-05-22T01:08:51.489Z,99.90
2023-05-22T01:11:23.740Z,99.90
2023-05-22T01:14:14.960Z,99.90
2023-05-22T01:17:14.506Z,99.90
2023-05-22T01:20:14.487Z,99.90
2023-05-22T01:23:19.035Z,99.90
2023-05-22T01:26:14.136Z,99.90
2023-05-22T01:29:28.914Z,99.90
2023-05-22T01:31:59.289Z,99.90
2023-05-22T01:34:28.048Z,99.90
2023-05-22T01:36:56.508Z,99.90
2023-05-22T01:39:24.818Z,99.90
2023-05-22T01:41:52.115Z,99.90
2023-05-22T01:44:19.093Z,99.90
2023-05-22T01:46:46.371Z,99.90
2023-05-22T01:49:13.361Z,99.90
2023-05-22T01:55:34.130Z,99.90
2023-05-22T01:58:14.797Z,99.90
2023-05-22T02:00:46.391Z,99.90
2023-05-22T02:03:20.799Z,99.90
2023-05-22T02:05:51.915Z,99.90
2023-05-22T02:08:21.839Z,99.90
2023-05-22T02:10:55.093Z,99.90
2023-05-22T02:13:22.806Z,99.90
2023-05-22T02:15:50.699Z,99.90
2023-05-22T02:18:17.729Z,99.90
2023-05-22T02:20:46.951Z,99.90
2023-05-22T02:23:14.202Z,99.90
2023-05-22T02:25:41.335Z,99.90
2023-05-22T02:28:08.368Z,99.90
2023-05-22T02:30:35.404Z,99.90
2023-05-22T02:33:06.117Z,99.90
2023-05-22T02:35:33.110Z,99.90
2023-05-22T02:38:00.078Z,99.90
2023-05-22T02:40:27.231Z,99.90
2023-05-22T02:42:54.170Z,99.90
2023-05-22T02:45:21.521Z,99.90
2023-05-22T02:47:48.476Z,99.90
2023-05-22T02:50:15.614Z,99.90
2023-05-22T02:52:42.813Z,99.90
2023-05-22T02:55:10.527Z,99.90
2023-05-22T02:57:37.744Z,99.90
2023-05-22T03:00:11.758Z,99.90
2023-05-22T03:02:39.305Z,99.90
2023-05-22T03:05:07.481Z,99.90
2023-05-22T03:07:35.064Z,99.90
2023-05-22T03:10:02.096Z,99.90
2023-05-22T03:12:29.112Z,99.90
2023-05-22T03:14:56.141Z,99.90
2023-05-22T03:17:23.386Z,99.90
2023-05-22T03:19:52.472Z,99.90
2023-05-22T03:22:19.419Z,99.90
2023-05-22T03:24:48.120Z,99.90
2023-05-22T03:27:19.815Z,99.90
2023-05-22T03:29:46.774Z,99.90
2023-05-22T03:32:13.852Z,99.90
2023-05-22T03:34:41.639Z,99.90
2023-05-22T03:37:09.336Z,99.90
2023-05-22T03:39:36.974Z,99.90
2023-05-22T03:42:04.225Z,99.90
2023-05-22T03:44:31.330Z,99.90
2023-05-22T03:46:58.266Z,99.90
2023-05-22T03:49:25.401Z,99.90
2023-05-22T03:51:52.388Z,99.90
2023-05-22T03:54:19.576Z,99.90
2023-05-22T03:56:46.696Z,99.90
2023-05-22T03:59:13.667Z,99.90
2023-05-22T04:01:40.754Z,99.90
2023-05-22T04:04:12.290Z,99.90
2023-05-22T04:06:43.487Z,99.90
2023-05-22T04:09:14.488Z,99.90
2023-05-22T04:11:42.341Z,99.90
2023-05-22T04:14:09.955Z,99.90
2023-05-22T04:16:36.909Z,99.90
2023-05-22T04:19:05.349Z,99.90
2023-05-22T04:21:34.493Z,99.90
2023-05-22T04:24:02.040Z,99.90
2023-05-22T04:26:33.260Z,99.90
2023-05-22T04:29:00.434Z,99.90
2023-05-22T04:31:27.515Z,99.90
2023-05-22T04:33:56.079Z,99.90
2023-05-22T04:36:26.169Z,99.90
2023-05-22T04:38:54.559Z,99.90
2023-05-22T04:41:26.878Z,99.90
2023-05-22T04:43:54.304Z,99.90
2023-05-22T04:46:21.556Z,99.90
2023-05-22T04:48:48.885Z,99.90
2023-05-22T04:51:16.119Z,99.90
2023-05-22T04:53:43.049Z,99.90
2023-05-22T04:56:11.761Z,99.90
2023-05-22T04:58:40.494Z,99.90
2023-05-22T05:01:07.473Z,99.90
2023-05-22T05:03:34.976Z,99.90
2023-05-22T05:06:01.873Z,99.90
2023-05-22T05:08:29.813Z,99.90
2023-05-22T05:10:56.940Z,99.90
2023-05-22T05:13:24.155Z,99.90
2023-05-22T05:15:51.967Z,99.90
2023-05-22T05:18:20.507Z,99.90
2023-05-22T05:20:47.810Z,99.90
2023-05-22T05:23:15.522Z,99.90
2023-05-22T05:25:42.755Z,99.90
2023-05-22T05:28:11.795Z,99.90
2023-05-22T05:30:45.048Z,99.90
2023-05-22T05:33:13.284Z,99.90
2023-05-22T05:35:42.682Z,99.90
2023-05-22T05:38:10.162Z,99.90
2023-05-22T05:40:37.506Z,99.90
2023-05-22T05:43:05.861Z,99.90
2023-05-22T05:45:33.654Z,99.90
2023-05-22T05:48:00.719Z,99.80
2023-05-22T05:50:27.762Z,99.40
2023-05-22T05:52:54.674Z,98.90
2023-05-22T05:55:21.996Z,98.30
2023-05-22T05:57:49.108Z,97.60
2023-05-22T06:00:17.429Z,97.00
2023-05-22T06:02:48.241Z,96.20
2023-05-22T06:05:19.332Z,95.60
2023-05-22T06:07:46.586Z,95.00
2023-05-22T06:10:25.799Z,94.20
2023-05-22T06:12:54.050Z,93.30
2023-05-22T06:15:21.328Z,92.60
2023-05-22T06:17:48.274Z,91.90
2023-05-22T06:20:15.809Z,91.50
2023-05-22T06:22:42.886Z,90.90
2023-05-22T06:25:10.154Z,90.20
2023-05-22T06:27:37.315Z,89.10
2023-05-22T06:30:04.966Z,88.10
2023-05-22T06:32:32.515Z,86.50
2023-05-22T06:34:59.816Z,85.00
2023-05-22T06:37:26.828Z,84.00
2023-05-22T06:39:53.929Z,82.20
2023-05-22T06:42:20.777Z,80.40
2023-05-22T06:44:47.696Z,78.90
2023-05-22T06:47:14.871Z,77.30
2023-05-22T06:49:43.049Z,76.30
2023-05-22T06:52:10.611Z,75.00
2023-05-22T06:54:37.659Z,73.80
2023-05-22T06:57:04.848Z,72.80
2023-05-22T06:59:33.361Z,71.20
2023-05-22T07:02:00.374Z,70.60
2023-05-22T07:04:27.279Z,69.40
2023-05-22T07:06:54.227Z,69.00
2023-05-22T07:09:22.112Z,68.30
2023-05-22T07:11:49.628Z,68.30
2023-05-22T07:14:16.650Z,67.60
2023-05-22T07:16:44.160Z,66.40
2023-05-22T07:19:12.182Z,64.90
2023-05-22T07:21:41.693Z,64.50
2023-05-22T07:24:08.668Z,64.30
2023-05-22T07:26:36.993Z,63.30
2023-05-22T07:29:04.848Z,62.10
2023-05-22T07:31:34.056Z,61.70
2023-05-22T07:34:01.224Z,61.10
2023-05-22T07:36:28.440Z,60.30
2023-05-22T07:38:55.514Z,59.60
2023-05-22T07:41:22.881Z,59.80
2023-05-22T07:43:50.240Z,59.90
2023-05-22T07:46:24.490Z,58.30
2023-05-22T07:49:00.945Z,56.80
2023-05-22T07:51:28.506Z,55.90
2023-05-22T07:53:55.661Z,55.20
2023-05-22T07:56:22.722Z,54.80
2023-05-22T07:58:50.396Z,54.50
2023-05-22T08:01:17.949Z,53.50
2023-05-22T08:03:45.240Z,54.00
2023-05-22T08:06:12.864Z,53.80
2023-05-22T08:08:40.205Z,53.80
2023-05-22T08:11:07.747Z,53.90
2023-05-22T08:13:34.937Z,55.00
2023-05-22T08:16:02.025Z,54.30
2023-05-22T08:18:29.945Z,54.10
2023-05-22T08:20:57.665Z,52.90
2023-05-22T08:23:27.001Z,52.30
2023-05-22T08:25:54.430Z,51.60
2023-05-22T08:28:21.503Z,50.60
2023-05-22T08:30:49.592Z,49.70
2023-05-22T08:33:16.823Z,48.50
2023-05-22T08:35:44.258Z,48.70
2023-05-22T08:38:11.439Z,47.50
2023-05-22T08:40:40.790Z,46.70
2023-05-22T08:43:09.552Z,46.10
2023-05-22T08:45:42.567Z,46.80
2023-05-22T08:48:20.736Z,45.70
2023-05-22T08:50:57.500Z,45.40
2023-05-22T08:53:26.734Z,45.90
2023-05-22T08:55:54.513Z,45.40
2023-05-22T08:58:22.657Z,44.90
2023-05-22T09:00:50.009Z,45.00
2023-05-22T09:03:18.599Z,45.50
2023-05-22T09:05:46.109Z,46.70
2023-05-22T09:08:20.549Z,47.90
2023-05-22T09:10:50.865Z,48.00
2023-05-22T09:13:31.804Z,48.50
2023-05-22T09:16:16.873Z,49.70
2023-05-22T09:18:58.222Z,51.40
2023-05-22T09:21:30.841Z,50.80
2023-05-22T09:24:02.098Z,50.90
2023-05-22T09:26:29.736Z,50.00
2023-05-22T09:28:59.025Z,48.40
2023-05-22T09:31:26.353Z,46.80
2023-05-22T09:33:55.209Z,45.30
2023-05-22T09:36:30.204Z,44.60
2023-05-22T09:38:58.306Z,44.90
2023-05-22T09:41:25.464Z,42.20
2023-05-22T09:43:52.447Z,42.20
2023-05-22T09:46:19.392Z,41.50
2023-05-22T09:48:52.589Z,42.10
2023-05-22T09:51:23.974Z,41.30
2023-05-22T09:53:52.489Z,40.90
2023-05-22T09:56:37.915Z,40.50
2023-05-22T09:59:10.039Z,40.20
2023-05-22T10:01:39.914Z,41.70
2023-05-22T10:04:13.125Z,43.20
2023-05-22T10:06:40.954Z,43.40
2023-05-22T10:09:12.620Z,42.90
2023-05-22T10:11:39.952Z,42.40
2023-05-22T10:14:08.854Z,43.30
2023-05-22T10:16:39.929Z,43.10
2023-05-22T10:19:08.744Z,42.10
2023-05-22T10:21:37.242Z,41.10
2023-05-22T10:24:07.201Z,40.50
2023-05-22T10:26:34.320Z,38.00
2023-05-22T10:29:22.666Z,37.00
2023-05-22T10:32:03.062Z,37.10
2023-05-22T10:34:48.217Z,36.40
2023-05-22T10:37:24.212Z,36.60
2023-05-22T10:40:10.886Z,37.40
2023-05-22T10:42:39.136Z,35.10
2023-05-22T10:45:11.123Z,34.70
2023-05-22T10:47:38.351Z,35.40
2023-05-22T10:50:38.700Z,35.20
2023-05-22T10:55:51.076Z,33.70
2023-05-22T10:58:19.128Z,34.10
2023-05-22T11:14:32.708Z,35.30
2023-05-22T11:17:02.512Z,35.50
2023-05-22T11:27:47.668Z,34.70
2023-05-22T11:30:15.977Z,34.30
2023-05-22T11:35:30.388Z,35.30
2023-05-22T11:43:43.080Z,34.20
2023-05-22T11:46:11.127Z,33.50
2023-05-22T11:48:46.510Z,33.30
2023-05-22T11:51:13.725Z,34.40
2023-05-22T11:53:42.895Z,33.60
2023-05-22T11:56:09.781Z,33.90
2023-05-22T11:58:36.855Z,34.00
2023-05-22T12:01:05.193Z,34.20
2023-05-22T12:03:32.744Z,35.00
2023-05-22T12:06:01.795Z,35.90
2023-05-22T12:08:28.942Z,36.10
2023-05-22T12:10:57.228Z,36.80
2023-05-22T12:13:26.373Z,38.10
2023-05-22T12:15:56.147Z,39.20
2023-05-22T12:18:26.056Z,40.80
2023-05-22T12:20:55.601Z,41.40
2023-05-22T12:23:26.542Z,42.50
2023-05-22T12:26:18.274Z,43.40
2023-05-22T12:28:45.204Z,44.60
2023-05-22T12:31:19.821Z,46.00
2023-05-22T12:33:46.603Z,45.90
2023-05-22T12:36:13.983Z,45.90
2023-05-22T12:38:41.519Z,44.90
2023-05-22T12:41:08.603Z,44.90
2023-05-22T12:43:35.992Z,45.60
2023-05-22T12:46:03.168Z,45.70
2023-05-22T12:48:30.125Z,46.70
2023-05-22T12:50:57.053Z,46.80
2023-05-22T12:53:24.294Z,46.20
2023-05-22T12:55:51.085Z,46.30
2023-05-22T12:58:17.974Z,46.70
2023-05-22T13:00:47.081Z,47.50
2023-05-22T13:03:14.096Z,47.00
2023-05-22T13:05:42.212Z,46.80
2023-05-22T13:08:09.547Z,47.20
2023-05-22T13:10:36.591Z,47.50
2023-05-22T13:13:03.957Z,46.80
2023-05-22T13:15:32.584Z,45.20
2023-05-22T13:17:59.753Z,44.10
2023-05-22T13:20:26.705Z,42.90
2023-05-22T13:22:53.790Z,41.40
2023-05-22T13:25:20.794Z,40.30
2023-05-22T13:27:47.679Z,40.40
2023-05-22T13:30:15.028Z,39.70
2023-05-22T13:32:41.964Z,39.50
2023-05-22T13:35:11.409Z,40.40
2023-05-22T13:37:39.632Z,40.50
2023-05-22T13:40:07.251Z,40.50
2023-05-22T13:42:34.177Z,41.60
2023-05-22T13:45:04.858Z,40.10
2023-05-22T13:47:31.802Z,39.50
2023-05-22T13:49:58.675Z,39.50
2023-05-22T13:52:25.734Z,40.40
2023-05-22T13:54:55.320Z,42.00
2023-05-22T13:57:22.371Z,43.00
2023-05-22T13:59:51.813Z,42.70
2023-05-22T14:02:20.726Z,44.10
2023-05-22T14:04:52.820Z,44.10
2023-05-22T14:07:20.008Z,44.90
2023-05-22T14:09:50.087Z,46.30
2023-05-22T14:12:17.051Z,46.80
2023-05-22T14:14:45.968Z,46.80
2023-05-22T14:19:59.827Z,48.00
2023-05-22T14:22:30.596Z,48.00
2023-05-22T14:24:58.251Z,48.70
2023-05-22T14:27:25.181Z,49.50
2023-05-22T14:29:52.789Z,50.30
2023-05-22T14:32:19.785Z,50.40
2023-05-22T14:34:46.756Z,51.10
2023-05-22T14:39:52.341Z,50.90
2023-05-22T14:42:19.389Z,51.90
2023-05-22T14:53:03.385Z,52.50
2023-05-22T14:55:31.584Z,52.30
2023-05-22T14:57:58.531Z,52.10
2023-05-22T15:00:25.485Z,52.60
2023-05-22T15:02:52.557Z,52.60
2023-05-22T15:05:19.609Z,52.40
2023-05-22T15:07:48.377Z,51.70
2023-05-22T15:10:16.861Z,52.20
2023-05-22T15:12:43.695Z,52.60
2023-05-22T15:15:15.592Z,52.70
2023-05-22T15:17:43.130Z,52.20
2023-05-22T15:20:11.020Z,52.30
2023-05-22T15:22:37.952Z,52.50
2023-05-22T15:25:09.724Z,52.40
2023-05-22T15:27:38.346Z,52.40
2023-05-22T15:32:56.304Z,53.00
2023-05-22T15:35:23.508Z,53.50
2023-05-22T15:37:50.460Z,53.30
2023-05-22T15:40:22.439Z,53.70
2023-05-22T15:42:52.416Z,54.40
2023-05-22T15:45:19.384Z,54.00
2023-05-22T15:47:47.102Z,53.80
2023-05-22T15:50:15.131Z,54.20
2023-05-22T15:52:42.105Z,54.20
2023-05-22T15:55:09.916Z,53.40
2023-05-22T15:57:37.506Z,53.60
2023-05-22T16:00:06.734Z,54.10
2023-05-22T16:02:33.931Z,54.00
2023-05-22T16:05:02.700Z,53.80
2023-05-22T16:10:06.310Z,54.10
2023-05-22T16:12:33.175Z,54.20
2023-05-22T16:15:01.017Z,54.20
2023-05-22T16:17:29.514Z,54.20
2023-05-22T16:19:56.392Z,54.60
2023-05-22T16:22:24.732Z,55.00
2023-05-22T16:24:58.071Z,54.70
2023-05-22T16:27:24.972Z,54.90
2023-05-22T16:29:51.822Z,55.00
2023-05-22T16:32:18.682Z,55.30
2023-05-22T16:34:47.068Z,55.70
2023-05-22T16:37:14.015Z,56.10
2023-05-22T16:39:41.416Z,56.20
2023-05-22T16:42:08.406Z,56.60
2023-05-22T16:44:35.503Z,56.70
2023-05-22T16:47:02.479Z,57.00
2023-05-22T16:49:29.730Z,57.30
2023-05-22T16:51:58.886Z,57.70
2023-05-22T16:57:04.296Z,58.20
2023-05-22T16:59:31.218Z,58.50
2023-05-22T17:01:58.214Z,59.10
2023-05-22T17:04:25.013Z,59.20
2023-05-22T17:06:53.751Z,59.60
2023-05-22T17:09:21.963Z,60.10
2023-05-22T17:11:50.137Z,60.50
2023-05-22T17:14:16.999Z,60.80
2023-05-22T17:16:43.861Z,61.60
2023-05-22T17:19:11.149Z,62.00
2023-05-22T17:21:38.008Z,62.40
2023-05-22T17:24:05.608Z,62.80
2023-05-22T17:26:34.354Z,63.20
2023-05-22T17:29:03.257Z,63.60
2023-05-22T17:31:31.619Z,64.00
2023-05-22T17:33:58.612Z,64.30
2023-05-22T17:36:25.593Z,64.50
2023-05-22T17:38:52.935Z,64.80
2023-05-22T17:41:20.442Z,65.10
2023-05-22T17:43:48.136Z,65.00
2023-05-22T17:46:15.651Z,65.30
2023-05-22T17:51:31.375Z,65.70
2023-05-22T17:54:00.196Z,66.20
2023-05-22T18:04:33.161Z,66.20
2023-05-22T18:07:00.597Z,66.10
2023-05-22T18:09:38.290Z,66.10
2023-05-22T18:12:10.986Z,66.60
2023-05-22T18:14:43.506Z,67.10
2023-05-22T18:17:18.692Z,67.40
2023-05-22T18:19:46.481Z,68.30
2023-05-22T18:22:29.811Z,68.90
2023-05-22T18:24:58.538Z,69.10
2023-05-22T18:35:41.551Z,69.70
2023-05-22T18:38:08.478Z,70.40
2023-05-22T18:40:37.738Z,70.80
2023-05-22T18:43:06.424Z,70.70
2023-05-22T18:45:33.714Z,71.20
2023-05-22T18:48:03.145Z,71.40
2023-05-22T18:53:23.178Z,72.00
2023-05-22T18:55:52.820Z,72.50
2023-05-22T18:58:21.235Z,72.40
2023-05-22T19:00:49.582Z,72.00
2023-05-22T19:03:29.043Z,72.00
2023-05-22T19:05:57.055Z,73.40
2023-05-22T19:08:29.653Z,73.50
2023-05-22T19:10:59.947Z,73.70
2023-05-22T19:13:27.968Z,73.90
2023-05-22T19:16:10.615Z,74.10
2023-05-22T19:39:06.398Z,76.20
2023-05-22T19:41:33.450Z,76.60
2023-05-22T19:44:00.647Z,76.90
2023-05-22T19:51:54.152Z,77.20
2023-05-22T19:54:22.286Z,77.60
2023-05-22T19:56:49.210Z,77.80
2023-05-22T19:59:16.591Z,78.00
2023-05-22T20:01:43.724Z,78.50
2023-05-22T20:04:14.271Z,78.90
2023-05-22T20:06:42.547Z,79.10
2023-05-22T20:09:10.172Z,79.30
2023-05-22T20:11:37.125Z,79.70
2023-05-22T20:14:04.339Z,80.10
2023-05-22T20:16:33.263Z,80.30
2023-05-22T20:19:00.304Z,80.70
2023-05-22T20:21:27.157Z,80.70
2023-05-22T20:23:55.555Z,81.10
2023-05-22T20:26:24.057Z,81.40
2023-05-22T20:28:51.393Z,80.90
2023-05-22T20:31:18.362Z,80.80
2023-05-22T20:33:45.779Z,80.80
2023-05-22T20:36:15.046Z,81.00
2023-05-22T20:38:42.750Z,81.00
2023-05-22T20:41:13.010Z,81.40
2023-05-22T20:43:43.682Z,81.50
2023-05-22T20:46:10.871Z,81.60
2023-05-22T20:48:38.813Z,81.00
2023-05-22T20:51:08.605Z,80.30
2023-05-22T20:53:36.006Z,80.10
2023-05-22T20:56:03.045Z,80.00
2023-05-22T20:58:30.038Z,79.90
2023-05-22T21:00:57.763Z,80.30
2023-05-22T21:03:25.994Z,80.60
2023-05-22T21:05:53.815Z,80.70
2023-05-22T21:08:21.575Z,80.70
2023-05-22T21:10:48.611Z,81.00
2023-05-22T21:13:15.649Z,81.30
2023-05-22T21:15:42.604Z,81.40
2023-05-22T21:18:10.178Z,81.80
2023-05-22T21:20:37.760Z,82.20
2023-05-22T21:23:05.036Z,82.30
2023-05-22T21:25:39.468Z,82.60
2023-05-22T21:28:07.784Z,83.10
2023-05-22T21:30:34.890Z,83.40
2023-05-22T21:33:01.995Z,83.60
2023-05-22T21:35:28.947Z,83.80
2023-05-22T21:37:56.075Z,83.90
2023-05-22T21:40:23.514Z,83.80
2023-05-22T21:42:50.814Z,84.10
2023-05-22T21:45:18.756Z,84.30
2023-05-22T21:47:47.165Z,84.60
2023-05-22T21:50:14.372Z,85.10
2023-05-22T21:52:41.740Z,85.20
2023-05-22T21:55:08.775Z,85.30
2023-05-22T21:57:36.088Z,85.50
2023-05-22T22:00:03.086Z,86.20
2023-05-22T22:02:30.023Z,86.50
2023-05-22T22:04:58.578Z,86.90
2023-05-22T22:07:25.925Z,87.00
2023-05-22T22:09:52.896Z,86.90
2023-05-22T22:12:21.951Z,87.10
2023-05-22T22:14:48.895Z,87.00
2023-05-22T22:17:18.119Z,87.10
2023-05-22T22:19:45.078Z,87.30
2023-05-22T22:22:12.609Z,87.70
2023-05-22T22:24:39.742Z,87.70
2023-05-22T22:27:09.722Z,87.70
2023-05-22T22:29:37.419Z,87.80
2023-05-22T22:32:04.482Z,88.00
2023-05-22T22:34:31.744Z,87.90
2023-05-22T22:36:58.573Z,87.70
2023-05-22T22:39:26.528Z,87.70
2023-05-22T22:41:53.842Z,87.60
2023-05-22T22:44:20.808Z,88.10
2023-05-22T22:46:48.195Z,87.30
2023-05-22T22:49:15.843Z,87.20
2023-05-22T22:51:42.981Z,87.40
2023-05-22T22:54:11.981Z,87.30
2023-05-22T22:56:38.984Z,87.20
2023-05-22T22:59:06.140Z,87.10
2023-05-22T23:01:33.094Z,87.20
2023-05-22T23:04:00.046Z,87.20
2023-05-22T23:06:29.710Z,87.30
2023-05-22T23:08:58.769Z,87.50
2023-05-22T23:11:37.695Z,87.50
2023-05-22T23:14:08.874Z,87.60
2023-05-22T23:16:36.823Z,87.60
2023-05-22T23:19:04.978Z,87.20
2023-05-22T23:21:32.545Z,87.20
2023-05-22T23:24:00.446Z,87.40
2023-05-22T23:26:31.285Z,87.70
2023-05-22T23:29:02.699Z,87.90
2023-05-22T23:31:30.756Z,87.90
2023-05-22T23:33:58.224Z,88.10
2023-05-22T23:36:28.241Z,87.70
2023-05-22T23:38:55.361Z,87.80
2023-05-22T23:41:25.230Z,88.40
2023-05-22T23:43:52.449Z,88.80
2023-05-22T23:46:21.307Z,88.90
2023-05-22T23:48:48.297Z,89.40
2023-05-22T23:51:15.556Z,89.60
2023-05-22T23:53:42.574Z,89.80
2023-05-22T23:56:13.282Z,90.00
2023-05-22T23:58:40.236Z,90.20
